createdAt,value
2018-02-16T00:00:51.355Z,12.57
2018-02-16T00:11:03.522Z,13.23
2018-02-16T00:21:14.128Z,10.57
2018-02-16T00:31:22.679Z,9.90
2018-02-16T00:41:31.314Z,13.60
2018-02-16T00:51:41.706Z,10.03
2018-02-16T01:01:51.037Z,10.07
2018-02-16T01:12:04.135Z,9.27
2018-02-16T01:22:14.724Z,11.50
2018-02-16T01:32:27.281Z,11.40
2018-02-16T01:42:36.216Z,11.93
2018-02-16T01:52:45.188Z,12.60
2018-02-16T02:02:53.998Z,15.40
2018-02-16T02:13:02.712Z,11.47
2018-02-16T02:23:14.819Z,8.13
2018-02-16T02:33:25.051Z,9.37
2018-02-16T02:43:32.718Z,9.83
2018-02-16T02:53:43.055Z,12.97
2018-02-16T03:03:52.288Z,11.03
2018-02-16T03:14:05.940Z,10.83
2018-02-16T03:24:14.563Z,11.73
2018-02-16T03:34:22.740Z,13.83
2018-02-16T03:44:31.746Z,9.87
2018-02-16T03:54:40.789Z,12.17
2018-02-16T04:04:52.504Z,10.90
2018-02-16T04:15:01.001Z,8.60
2018-02-16T04:25:09.016Z,8.27
2018-02-16T04:35:17.653Z,8.30
2018-02-16T04:45:25.417Z,8.07
2018-02-16T04:55:36.092Z,8.50
2018-02-16T05:05:45.762Z,8.60
2018-02-16T05:15:55.493Z,8.70
2018-02-16T05:26:03.388Z,8.37
2018-02-16T05:36:16.217Z,7.73
2018-02-16T05:46:27.843Z,7.17
2018-02-16T05:56:36.059Z,8.07
2018-02-16T06:06:47.136Z,8.17
2018-02-16T06:16:56.441Z,7.70
2018-02-16T06:27:08.485Z,7.90
2018-02-16T06:37:19.491Z,8.07
2018-02-16T06:47:29.958Z,7.77
2018-02-16T06:57:39.807Z,8.23
2018-02-16T07:07:48.787Z,7.97
2018-02-16T07:17:58.163Z,8.00
2018-02-16T07:28:06.153Z,8.07
2018-02-16T07:38:20.403Z,11.67
2018-02-16T07:48:30.328Z,8.73
2018-02-16T07:58:40.331Z,8.73
2018-02-16T08:08:48.997Z,9.80
2018-02-16T08:18:57.978Z,9.23
2018-02-16T08:29:06.973Z,10.93
2018-02-16T08:39:16.837Z,10.00
2018-02-16T08:49:31.869Z,11.23
2018-02-16T08:59:47.158Z,11.87
2018-02-16T09:09:55.677Z,10.40
2018-02-16T09:20:04.330Z,9.40
2018-02-16T09:30:13.490Z,9.90
2018-02-16T09:40:23.912Z,10.37
2018-02-16T09:50:37.040Z,9.43
2018-02-16T10:00:45.835Z,8.43
2018-02-16T10:10:53.839Z,7.70
2018-02-16T10:21:03.671Z,8.50
2018-02-16T10:31:14.852Z,8.70
2018-02-16T10:41:23.403Z,7.47
2018-02-16T10:51:31.594Z,8.80
2018-02-16T11:01:46.447Z,6.73
2018-02-16T11:11:55.204Z,6.57
2018-02-16T11:22:04.630Z,7.60
2018-02-16T11:32:17.132Z,8.23
2018-02-16T11:42:26.657Z,9.57
2018-02-16T11:52:36.470Z,6.30
2018-02-16T12:02:46.231Z,6.30
2018-02-16T12:12:58.759Z,9.40
2018-02-16T12:23:10.915Z,8.23
2018-02-16T12:33:20.357Z,8.00
2018-02-16T12:43:30.072Z,7.53
2018-02-16T12:53:41.364Z,7.80
2018-02-16T13:03:50.833Z,6.77
2018-02-16T13:13:59.169Z,5.90
2018-02-16T13:24:11.718Z,6.37
2018-02-16T13:34:20.028Z,6.27
2018-02-16T13:44:29.897Z,6.77
2018-02-16T13:54:40.236Z,7.37
2018-02-16T14:04:48.846Z,9.33
2018-02-16T14:14:57.207Z,8.37
2018-02-16T14:25:06.614Z,7.70
2018-02-16T14:35:16.633Z,8.17
2018-02-16T14:45:25.122Z,18.13
2018-02-16T14:55:36.582Z,11.37
2018-02-16T15:05:47.202Z,9.60
2018-02-16T15:15:56.931Z,9.50
2018-02-16T15:26:06.271Z,9.50
2018-02-16T15:36:14.429Z,6.33
2018-02-16T15:46:22.891Z,5.77
2018-02-16T15:56:34.345Z,6.10
2018-02-16T16:06:45.054Z,7.07
2018-02-16T16:16:53.846Z,6.67
2018-02-16T16:27:02.873Z,6.97
2018-02-16T16:37:15.041Z,6.43
2018-02-16T16:47:23.612Z,6.00
2018-02-16T16:57:36.037Z,5.40
2018-02-16T17:07:46.289Z,5.40
2018-02-16T17:17:54.444Z,5.33
2018-02-16T17:28:02.408Z,5.13
2018-02-16T17:38:13.492Z,5.10
2018-02-16T17:48:21.523Z,4.97
2018-02-16T17:58:36.174Z,5.13
2018-02-16T18:08:45.342Z,4.70
2018-02-16T18:18:54.282Z,8.07
2018-02-16T18:29:02.983Z,5.57
2018-02-16T18:39:12.610Z,4.80
2018-02-16T18:49:22.353Z,4.47
2018-02-16T18:59:31.992Z,4.93
2018-02-16T19:09:39.929Z,4.83
2018-02-16T19:19:48.310Z,3.90
2018-02-16T19:29:56.099Z,4.30
2018-02-16T19:40:07.989Z,3.60
2018-02-16T19:50:16.830Z,3.63
2018-02-16T20:00:25.914Z,3.60
2018-02-16T20:10:35.026Z,5.07
2018-02-16T20:20:43.240Z,5.10
2018-02-16T20:30:52.345Z,3.27
2018-02-16T20:41:01.019Z,7.10
2018-02-16T20:51:11.402Z,3.57
2018-02-16T21:01:19.221Z,3.13
2018-02-16T21:11:29.623Z,3.93
2018-02-16T21:21:39.636Z,3.23
2018-02-16T21:31:48.882Z,3.63
2018-02-16T21:41:57.759Z,3.67
2018-02-16T21:52:07.227Z,3.93
2018-02-16T22:02:15.858Z,3.57
2018-02-16T22:22:35.065Z,4.73
2018-02-16T22:32:42.988Z,3.47
2018-02-16T22:42:51.764Z,10.57
2018-02-16T22:53:00.408Z,5.17
2018-02-16T23:03:11.268Z,3.33
2018-02-16T23:13:20.252Z,3.53
2018-02-16T23:23:29.170Z,3.23
2018-02-16T23:33:38.057Z,3.73
2018-02-16T23:43:49.144Z,10.53
2018-02-16T23:53:58.419Z,17.67
